sensor_id;sensor_type;location;lat;lon;timestamp;P1;durP1;ratioP1;P2;durP2;ratioP2
18290;SDS011;9271;48.590;8.866;2023-06-22T00:02:17;10.13;;;9.20;;
18290;SDS011;9271;48.590;8.866;2023-06-22T00:04:44;11.43;;;9.33;;
18290;SDS011;9271;48.590;8.866;2023-06-22T00:07:11;10.23;;;9.33;;
18290;SDS011;9271;48.590;8.866;2023-06-22T00:09:37;10.63;;;9.30;;
18290;SDS011;9271;48.590;8.866;2023-06-22T00:12:04;12.10;;;9.70;;
18290;SDS011;9271;48.590;8.866;2023-06-22T00:14:31;11.80;;;9.57;;
18290;SDS011;9271;48.590;8.866;2023-06-22T00:16:58;9.93;;;9.03;;
18290;SDS011;9271;48.590;8.866;2023-06-22T00:19:26;10.50;;;8.63;;
18290;SDS011;9271;48.590;8.866;2023-06-22T00:21:53;9.63;;;8.73;;
18290;SDS011;9271;48.590;8.866;2023-06-22T00:24:19;9.43;;;8.50;;
18290;SDS011;9271;48.590;8.866;2023-06-22T00:26:47;9.30;;;8.40;;
18290;SDS011;9271;48.590;8.866;2023-06-22T00:29:14;13.30;;;9.47;;
18290;SDS011;9271;48.590;8.866;2023-06-22T00:31:41;9.83;;;8.80;;
18290;SDS011;9271;48.590;8.866;2023-06-22T00:34:07;11.83;;;9.57;;
18290;SDS011;9271;48.590;8.866;2023-06-22T00:36:35;10.77;;;9.13;;
18290;SDS011;9271;48.590;8.866;2023-06-22T00:39:02;10.07;;;8.90;;
18290;SDS011;9271;48.590;8.866;2023-06-22T00:41:30;10.47;;;9.30;;
18290;SDS011;9271;48.590;8.866;2023-06-22T00:43:57;9.60;;;8.60;;
18290;SDS011;9271;48.590;8.866;2023-06-22T00:46:23;10.57;;;9.37;;
18290;SDS011;9271;48.590;8.866;2023-06-22T00:48:50;11.47;;;10.27;;
18290;SDS011;9271;48.590;8.866;2023-06-22T00:51:22;12.70;;;9.93;;
18290;SDS011;9271;48.590;8.866;2023-06-22T00:53:50;10.13;;;9.10;;
18290;SDS011;9271;48.590;8.866;2023-06-22T00:56:18;11.73;;;10.53;;
18290;SDS011;9271;48.590;8.866;2023-06-22T00:58:49;11.23;;;10.10;;
18290;SDS011;9271;48.590;8.866;2023-06-22T01:01:18;11.87;;;10.67;;
18290;SDS011;9271;48.590;8.866;2023-06-22T01:03:48;11.10;;;10.00;;
18290;SDS011;9271;48.590;8.866;2023-06-22T01:06:16;10.27;;;9.37;;
18290;SDS011;9271;48.590;8.866;2023-06-22T01:08:57;10.53;;;9.53;;
18290;SDS011;9271;48.590;8.866;2023-06-22T01:11:31;12.37;;;9.10;;
18290;SDS011;9271;48.590;8.866;2023-06-22T01:14:04;10.67;;;9.60;;
18290;SDS011;9271;48.590;8.866;2023-06-22T01:16:37;11.73;;;9.67;;
18290;SDS011;9271;48.590;8.866;2023-06-22T01:19:09;10.63;;;9.53;;
18290;SDS011;9271;48.590;8.866;2023-06-22T01:21:52;10.77;;;9.63;;
18290;SDS011;9271;48.590;8.866;2023-06-22T01:24:23;10.90;;;9.80;;
18290;SDS011;9271;48.590;8.866;2023-06-22T01:26:57;10.63;;;9.63;;
18290;SDS011;9271;48.590;8.866;2023-06-22T01:29:32;10.27;;;9.20;;
18290;SDS011;9271;48.590;8.866;2023-06-22T01:32:00;11.00;;;9.67;;
18290;SDS011;9271;48.590;8.866;2023-06-22T01:34:30;12.50;;;10.50;;
18290;SDS011;9271;48.590;8.866;2023-06-22T01:36:57;17.13;;;12.97;;
18290;SDS011;9271;48.590;8.866;2023-06-22T01:39:25;13.97;;;10.70;;
18290;SDS011;9271;48.590;8.866;2023-06-22T01:41:53;15.10;;;9.97;;
18290;SDS011;9271;48.590;8.866;2023-06-22T01:44:20;10.87;;;9.67;;
18290;SDS011;9271;48.590;8.866;2023-06-22T01:46:49;11.23;;;9.97;;
18290;SDS011;9271;48.590;8.866;2023-06-22T01:49:16;14.03;;;9.70;;
18290;SDS011;9271;48.590;8.866;2023-06-22T01:51:43;12.67;;;10.60;;
18290;SDS011;9271;48.590;8.866;2023-06-22T01:54:10;10.93;;;9.53;;
18290;SDS011;9271;48.590;8.866;2023-06-22T01:56:37;12.10;;;10.43;;
18290;SDS011;9271;48.590;8.866;2023-06-22T01:59:05;13.23;;;10.87;;
18290;SDS011;9271;48.590;8.866;2023-06-22T02:01:40;12.73;;;10.03;;
18290;SDS011;9271;48.590;8.866;2023-06-22T02:04:12;11.90;;;10.20;;
18290;SDS011;9271;48.590;8.866;2023-06-22T02:06:45;11.53;;;10.30;;
18290;SDS011;9271;48.590;8.866;2023-06-22T02:09:16;11.93;;;10.73;;
18290;SDS011;9271;48.590;8.866;2023-06-22T02:11:45;14.90;;;11.17;;
18290;SDS011;9271;48.590;8.866;2023-06-22T02:14:14;12.03;;;10.53;;
18290;SDS011;9271;48.590;8.866;2023-06-22T02:16:41;12.80;;;11.27;;
18290;SDS011;9271;48.590;8.866;2023-06-22T02:19:08;12.53;;;11.20;;
18290;SDS011;9271;48.590;8.866;2023-06-22T02:21:36;14.37;;;11.17;;
18290;SDS011;9271;48.590;8.866;2023-06-22T02:24:03;13.67;;;10.93;;
18290;SDS011;9271;48.590;8.866;2023-06-22T02:26:30;12.90;;;11.23;;
18290;SDS011;9271;48.590;8.866;2023-06-22T02:28:59;12.90;;;10.57;;
18290;SDS011;9271;48.590;8.866;2023-06-22T02:31:25;12.73;;;10.70;;
18290;SDS011;9271;48.590;8.866;2023-06-22T02:33:55;13.73;;;10.30;;
18290;SDS011;9271;48.590;8.866;2023-06-22T02:36:22;13.23;;;11.83;;
18290;SDS011;9271;48.590;8.866;2023-06-22T02:38:51;13.20;;;11.53;;
18290;SDS011;9271;48.590;8.866;2023-06-22T02:41:18;12.50;;;11.20;;
18290;SDS011;9271;48.590;8.866;2023-06-22T02:43:45;17.10;;;11.73;;
18290;SDS011;9271;48.590;8.866;2023-06-22T02:46:12;14.27;;;11.37;;
18290;SDS011;9271;48.590;8.866;2023-06-22T02:48:39;13.80;;;11.53;;
18290;SDS011;9271;48.590;8.866;2023-06-22T02:51:05;12.47;;;10.40;;
18290;SDS011;9271;48.590;8.866;2023-06-22T02:53:32;12.37;;;10.93;;
18290;SDS011;9271;48.590;8.866;2023-06-22T02:56:01;14.07;;;10.53;;
18290;SDS011;9271;48.590;8.866;2023-06-22T02:58:30;12.80;;;10.30;;
18290;SDS011;9271;48.590;8.866;2023-06-22T03:01:02;10.63;;;9.53;;
18290;SDS011;9271;48.590;8.866;2023-06-22T03:03:29;12.00;;;10.43;;
18290;SDS011;9271;48.590;8.866;2023-06-22T03:05:56;12.60;;;11.40;;
18290;SDS011;9271;48.590;8.866;2023-06-22T03:08:23;13.13;;;11.47;;
18290;SDS011;9271;48.590;8.866;2023-06-22T03:10:49;19.90;;;12.47;;
18290;SDS011;9271;48.590;8.866;2023-06-22T03:13:17;12.53;;;11.20;;
18290;SDS011;9271;48.590;8.866;2023-06-22T03:15:44;15.80;;;10.93;;
18290;SDS011;9271;48.590;8.866;2023-06-22T03:18:11;13.30;;;11.93;;
18290;SDS011;9271;48.590;8.866;2023-06-22T03:20:37;15.20;;;11.43;;
18290;SDS011;9271;48.590;8.866;2023-06-22T03:23:04;12.70;;;11.47;;
18290;SDS011;9271;48.590;8.866;2023-06-22T03:25:31;14.20;;;12.63;;
18290;SDS011;9271;48.590;8.866;2023-06-22T03:27:58;15.50;;;13.83;;
18290;SDS011;9271;48.590;8.866;2023-06-22T03:30:26;16.77;;;12.53;;
18290;SDS011;9271;48.590;8.866;2023-06-22T03:32:53;12.90;;;11.67;;
18290;SDS011;9271;48.590;8.866;2023-06-22T03:35:20;14.63;;;12.13;;
18290;SDS011;9271;48.590;8.866;2023-06-22T03:37:46;15.03;;;11.47;;
18290;SDS011;9271;48.590;8.866;2023-06-22T03:40:13;14.90;;;11.73;;
18290;SDS011;9271;48.590;8.866;2023-06-22T03:42:39;12.80;;;11.53;;
18290;SDS011;9271;48.590;8.866;2023-06-22T03:45:07;13.07;;;11.67;;
18290;SDS011;9271;48.590;8.866;2023-06-22T03:47:35;13.30;;;11.27;;
18290;SDS011;9271;48.590;8.866;2023-06-22T03:50:02;13.70;;;11.60;;
18290;SDS011;9271;48.590;8.866;2023-06-22T03:52:29;12.90;;;11.60;;
18290;SDS011;9271;48.590;8.866;2023-06-22T03:54:56;12.93;;;11.63;;
18290;SDS011;9271;48.590;8.866;2023-06-22T03:57:22;13.27;;;11.90;;
18290;SDS011;9271;48.590;8.866;2023-06-22T03:59:49;11.80;;;10.63;;
18290;SDS011;9271;48.590;8.866;2023-06-22T04:02:16;13.83;;;10.83;;
18290;SDS011;9271;48.590;8.866;2023-06-22T04:04:44;14.03;;;11.00;;
18290;SDS011;9271;48.590;8.866;2023-06-22T04:07:10;13.87;;;11.00;;
18290;SDS011;9271;48.590;8.866;2023-06-22T04:09:37;14.73;;;11.40;;
18290;SDS011;9271;48.590;8.866;2023-06-22T04:12:04;12.00;;;10.67;;
18290;SDS011;9271;48.590;8.866;2023-06-22T04:14:31;14.23;;;10.50;;
18290;SDS011;9271;48.590;8.866;2023-06-22T04:16:58;13.67;;;10.83;;
18290;SDS011;9271;48.590;8.866;2023-06-22T04:19:25;12.10;;;10.83;;
18290;SDS011;9271;48.590;8.866;2023-06-22T04:21:53;13.20;;;10.77;;
18290;SDS011;9271;48.590;8.866;2023-06-22T04:24:19;16.17;;;11.83;;
18290;SDS011;9271;48.590;8.866;2023-06-22T04:26:46;16.03;;;12.20;;
18290;SDS011;9271;48.590;8.866;2023-06-22T04:29:13;13.20;;;11.27;;
18290;SDS011;9271;48.590;8.866;2023-06-22T04:31:39;14.17;;;10.87;;
18290;SDS011;9271;48.590;8.866;2023-06-22T04:34:07;11.17;;;9.30;;
18290;SDS011;9271;48.590;8.866;2023-06-22T04:36:34;12.50;;;10.57;;
18290;SDS011;9271;48.590;8.866;2023-06-22T04:39:04;12.53;;;10.43;;
18290;SDS011;9271;48.590;8.866;2023-06-22T04:41:32;12.97;;;11.40;;
18290;SDS011;9271;48.590;8.866;2023-06-22T04:44:07;14.43;;;10.27;;
18290;SDS011;9271;48.590;8.866;2023-06-22T04:46:34;12.93;;;10.30;;
18290;SDS011;9271;48.590;8.866;2023-06-22T04:49:03;13.17;;;9.87;;
18290;SDS011;9271;48.590;8.866;2023-06-22T04:51:36;11.17;;;9.40;;
18290;SDS011;9271;48.590;8.866;2023-06-22T04:54:05;13.53;;;9.97;;
18290;SDS011;9271;48.590;8.866;2023-06-22T04:56:33;11.73;;;10.03;;
18290;SDS011;9271;48.590;8.866;2023-06-22T04:59:00;14.07;;;10.63;;
18290;SDS011;9271;48.590;8.866;2023-06-22T05:01:28;11.57;;;8.70;;
18290;SDS011;9271;48.590;8.866;2023-06-22T05:03:55;11.23;;;10.00;;
18290;SDS011;9271;48.590;8.866;2023-06-22T05:06:23;10.23;;;9.20;;
18290;SDS011;9271;48.590;8.866;2023-06-22T05:08:51;10.73;;;9.60;;
18290;SDS011;9271;48.590;8.866;2023-06-22T05:11:23;10.73;;;9.37;;
18290;SDS011;9271;48.590;8.866;2023-06-22T05:13:50;12.80;;;8.97;;
18290;SDS011;9271;48.590;8.866;2023-06-22T05:16:17;10.53;;;9.37;;
18290;SDS011;9271;48.590;8.866;2023-06-22T05:18:49;10.90;;;9.37;;
18290;SDS011;9271;48.590;8.866;2023-06-22T05:21:18;9.80;;;8.80;;
18290;SDS011;9271;48.590;8.866;2023-06-22T05:23:46;13.60;;;9.53;;
18290;SDS011;9271;48.590;8.866;2023-06-22T05:26:12;12.50;;;9.43;;
18290;SDS011;9271;48.590;8.866;2023-06-22T05:28:40;10.77;;;8.87;;
18290;SDS011;9271;48.590;8.866;2023-06-22T05:31:10;13.93;;;9.50;;
18290;SDS011;9271;48.590;8.866;2023-06-22T05:33:37;12.30;;;9.40;;
18290;SDS011;9271;48.590;8.866;2023-06-22T05:36:04;12.50;;;9.07;;
18290;SDS011;9271;48.590;8.866;2023-06-22T05:38:31;10.20;;;8.50;;
18290;SDS011;9271;48.590;8.866;2023-06-22T05:40:58;9.03;;;7.80;;
18290;SDS011;9271;48.590;8.866;2023-06-22T05:43:24;8.70;;;7.80;;
18290;SDS011;9271;48.590;8.866;2023-06-22T05:45:52;10.90;;;7.77;;
18290;SDS011;9271;48.590;8.866;2023-06-22T05:48:19;8.77;;;7.87;;
18290;SDS011;9271;48.590;8.866;2023-06-22T05:50:46;10.00;;;7.93;;
18290;SDS011;9271;48.590;8.866;2023-06-22T05:53:12;8.43;;;7.63;;
18290;SDS011;9271;48.590;8.866;2023-06-22T05:55:39;8.63;;;7.77;;
18290;SDS011;9271;48.590;8.866;2023-06-22T05:58:07;11.47;;;7.80;;
18290;SDS011;9271;48.590;8.866;2023-06-22T06:00:34;14.03;;;8.17;;
18290;SDS011;9271;48.590;8.866;2023-06-22T06:03:02;9.87;;;7.47;;
18290;SDS011;9271;48.590;8.866;2023-06-22T06:05:29;8.20;;;7.10;;
18290;SDS011;9271;48.590;8.866;2023-06-22T06:07:56;9.53;;;7.30;;
18290;SDS011;9271;48.590;8.866;2023-06-22T06:10:22;8.97;;;7.73;;
18290;SDS011;9271;48.590;8.866;2023-06-22T06:12:50;10.57;;;7.47;;
18290;SDS011;9271;48.590;8.866;2023-06-22T06:15:16;10.13;;;7.63;;
18290;SDS011;9271;48.590;8.866;2023-06-22T06:17:46;8.50;;;7.60;;
18290;SDS011;9271;48.590;8.866;2023-06-22T06:20:15;10.40;;;7.33;;
18290;SDS011;9271;48.590;8.866;2023-06-22T06:22:42;7.97;;;7.00;;
18290;SDS011;9271;48.590;8.866;2023-06-22T06:25:09;8.37;;;6.90;;
18290;SDS011;9271;48.590;8.866;2023-06-22T06:27:41;10.13;;;7.43;;
18290;SDS011;9271;48.590;8.866;2023-06-22T06:30:08;7.60;;;6.73;;
18290;SDS011;9271;48.590;8.866;2023-06-22T06:32:35;8.37;;;6.23;;
18290;SDS011;9271;48.590;8.866;2023-06-22T06:35:03;8.47;;;7.40;;
18290;SDS011;9271;48.590;8.866;2023-06-22T06:37:33;9.80;;;6.73;;
18290;SDS011;9271;48.590;8.866;2023-06-22T06:40:01;8.57;;;6.97;;
18290;SDS011;9271;48.590;8.866;2023-06-22T06:42:30;7.40;;;6.70;;
18290;SDS011;9271;48.590;8.866;2023-06-22T06:44:56;7.63;;;6.43;;
18290;SDS011;9271;48.590;8.866;2023-06-22T06:47:23;9.27;;;6.40;;
18290;SDS011;9271;48.590;8.866;2023-06-22T06:49:50;11.27;;;6.37;;
18290;SDS011;9271;48.590;8.866;2023-06-22T06:52:16;11.87;;;6.70;;
18290;SDS011;9271;48.590;8.866;2023-06-22T06:54:46;7.67;;;5.93;;
18290;SDS011;9271;48.590;8.866;2023-06-22T06:57:12;9.50;;;6.00;;
18290;SDS011;9271;48.590;8.866;2023-06-22T06:59:40;8.77;;;6.17;;
18290;SDS011;9271;48.590;8.866;2023-06-22T07:02:07;8.03;;;6.40;;
18290;SDS011;9271;48.590;8.866;2023-06-22T07:04:33;6.97;;;5.60;;
18290;SDS011;9271;48.590;8.866;2023-06-22T07:07:00;8.87;;;5.30;;
18290;SDS011;9271;48.590;8.866;2023-06-22T07:09:28;6.50;;;5.27;;
18290;SDS011;9271;48.590;8.866;2023-06-22T07:11:56;6.90;;;5.03;;
18290;SDS011;9271;48.590;8.866;2023-06-22T07:14:22;7.67;;;5.50;;
18290;SDS011;9271;48.590;8.866;2023-06-22T07:16:49;9.30;;;4.90;;
18290;SDS011;9271;48.590;8.866;2023-06-22T07:19:15;8.93;;;4.97;;
18290;SDS011;9271;48.590;8.866;2023-06-22T07:21:42;8.50;;;4.93;;
18290;SDS011;9271;48.590;8.866;2023-06-22T07:24:09;6.97;;;4.70;;
18290;SDS011;9271;48.590;8.866;2023-06-22T07:26:35;9.03;;;5.40;;
18290;SDS011;9271;48.590;8.866;2023-06-22T07:29:03;8.33;;;5.27;;
18290;SDS011;9271;48.590;8.866;2023-06-22T07:31:30;5.70;;;4.63;;
18290;SDS011;9271;48.590;8.866;2023-06-22T07:33:56;11.37;;;5.97;;
18290;SDS011;9271;48.590;8.866;2023-06-22T07:36:23;7.83;;;5.23;;
18290;SDS011;9271;48.590;8.866;2023-06-22T07:38:50;15.77;;;5.50;;
18290;SDS011;9271;48.590;8.866;2023-06-22T07:41:17;13.17;;;5.30;;
18290;SDS011;9271;48.590;8.866;2023-06-22T07:43:44;9.53;;;5.23;;
18290;SDS011;9271;48.590;8.866;2023-06-22T07:46:12;9.80;;;5.60;;
18290;SDS011;9271;48.590;8.866;2023-06-22T07:48:39;9.10;;;5.03;;
18290;SDS011;9271;48.590;8.866;2023-06-22T07:51:06;7.30;;;5.60;;
18290;SDS011;9271;48.590;8.866;2023-06-22T07:53:33;9.07;;;5.50;;
18290;SDS011;9271;48.590;8.866;2023-06-22T07:56:01;9.70;;;5.72;;
18290;SDS011;9271;48.590;8.866;2023-06-22T07:58:32;7.10;;;5.07;;
18290;SDS011;9271;48.590;8.866;2023-06-22T08:00:58;7.85;;;5.47;;
18290;SDS011;9271;48.590;8.866;2023-06-22T08:03:26;7.85;;;5.70;;
18290;SDS011;9271;48.590;8.866;2023-06-22T08:05:53;6.82;;;5.63;;
18290;SDS011;9271;48.590;8.866;2023-06-22T08:08:20;6.85;;;5.15;;
18290;SDS011;9271;48.590;8.866;2023-06-22T08:10:46;84.07;;;17.85;;
18290;SDS011;9271;48.590;8.866;2023-06-22T08:13:13;17.65;;;7.38;;
18290;SDS011;9271;48.590;8.866;2023-06-22T08:15:40;9.30;;;5.80;;
18290;SDS011;9271;48.590;8.866;2023-06-22T08:18:06;11.33;;;6.47;;
18290;SDS011;9271;48.590;8.866;2023-06-22T08:20:34;7.90;;;4.95;;
18290;SDS011;9271;48.590;8.866;2023-06-22T08:23:01;12.52;;;6.82;;
18290;SDS011;9271;48.590;8.866;2023-06-22T08:25:31;12.77;;;6.03;;
18290;SDS011;9271;48.590;8.866;2023-06-22T08:27:57;8.23;;;5.22;;
18290;SDS011;9271;48.590;8.866;2023-06-22T08:30:24;8.35;;;5.40;;
18290;SDS011;9271;48.590;8.866;2023-06-22T08:32:51;9.23;;;5.25;;
18290;SDS011;9271;48.590;8.866;2023-06-22T08:35:18;19.73;;;6.05;;
18290;SDS011;9271;48.590;8.866;2023-06-22T08:37:46;13.52;;;5.68;;
18290;SDS011;9271;48.590;8.866;2023-06-22T08:40:17;11.23;;;5.75;;
18290;SDS011;9271;48.590;8.866;2023-06-22T08:42:45;20.48;;;5.25;;
18290;SDS011;9271;48.590;8.866;2023-06-22T08:45:12;9.85;;;5.30;;
18290;SDS011;9271;48.590;8.866;2023-06-22T08:47:39;11.32;;;5.30;;
18290;SDS011;9271;48.590;8.866;2023-06-22T08:50:07;8.98;;;5.85;;
18290;SDS011;9271;48.590;8.866;2023-06-22T08:52:34;8.77;;;5.20;;
18290;SDS011;9271;48.590;8.866;2023-06-22T08:55:03;11.05;;;5.60;;
18290;SDS011;9271;48.590;8.866;2023-06-22T08:57:32;6.82;;;5.22;;
18290;SDS011;9271;48.590;8.866;2023-06-22T08:59:59;6.88;;;4.88;;
18290;SDS011;9271;48.590;8.866;2023-06-22T09:02:26;12.32;;;5.32;;
18290;SDS011;9271;48.590;8.866;2023-06-22T09:04:55;9.57;;;5.03;;
18290;SDS011;9271;48.590;8.866;2023-06-22T09:07:22;9.00;;;5.05;;
18290;SDS011;9271;48.590;8.866;2023-06-22T09:09:49;12.50;;;5.55;;
18290;SDS011;9271;48.590;8.866;2023-06-22T09:12:19;10.38;;;5.50;;
18290;SDS011;9271;48.590;8.866;2023-06-22T09:14:50;8.40;;;5.20;;
18290;SDS011;9271;48.590;8.866;2023-06-22T09:17:17;8.73;;;5.55;;
18290;SDS011;9271;48.590;8.866;2023-06-22T09:19:43;15.65;;;5.68;;
18290;SDS011;9271;48.590;8.866;2023-06-22T09:22:10;10.65;;;5.70;;
18290;SDS011;9271;48.590;8.866;2023-06-22T09:24:37;6.75;;;5.07;;
18290;SDS011;9271;48.590;8.866;2023-06-22T09:27:04;14.80;;;5.50;;
18290;SDS011;9271;48.590;8.866;2023-06-22T09:29:32;9.25;;;5.20;;
18290;SDS011;9271;48.590;8.866;2023-06-22T09:31:59;10.75;;;5.43;;
18290;SDS011;9271;48.590;8.866;2023-06-22T09:34:25;10.30;;;5.13;;
18290;SDS011;9271;48.590;8.866;2023-06-22T09:36:52;12.98;;;5.00;;
18290;SDS011;9271;48.590;8.866;2023-06-22T09:39:20;11.68;;;5.40;;
18290;SDS011;9271;48.590;8.866;2023-06-22T09:41:46;8.50;;;5.13;;
18290;SDS011;9271;48.590;8.866;2023-06-22T09:44:13;9.13;;;4.70;;
18290;SDS011;9271;48.590;8.866;2023-06-22T09:46:41;12.52;;;5.68;;
18290;SDS011;9271;48.590;8.866;2023-06-22T09:49:07;7.57;;;4.88;;
18290;SDS011;9271;48.590;8.866;2023-06-22T09:51:34;10.77;;;5.78;;
18290;SDS011;9271;48.590;8.866;2023-06-22T09:54:01;10.57;;;5.40;;
18290;SDS011;9271;48.590;8.866;2023-06-22T09:56:27;7.65;;;5.15;;
18290;SDS011;9271;48.590;8.866;2023-06-22T09:58:55;10.48;;;5.32;;
18290;SDS011;9271;48.590;8.866;2023-06-22T10:01:22;9.73;;;5.47;;
18290;SDS011;9271;48.590;8.866;2023-06-22T10:03:52;9.82;;;5.30;;
18290;SDS011;9271;48.590;8.866;2023-06-22T10:06:20;8.07;;;5.10;;
18290;SDS011;9271;48.590;8.866;2023-06-22T10:08:47;9.40;;;5.70;;
18290;SDS011;9271;48.590;8.866;2023-06-22T10:11:15;12.73;;;5.57;;
18290;SDS011;9271;48.590;8.866;2023-06-22T10:13:42;10.65;;;5.05;;
18290;SDS011;9271;48.590;8.866;2023-06-22T10:16:09;13.20;;;6.32;;
18290;SDS011;9271;48.590;8.866;2023-06-22T10:18:36;9.95;;;5.30;;
18290;SDS011;9271;48.590;8.866;2023-06-22T10:21:04;8.25;;;4.95;;
18290;SDS011;9271;48.590;8.866;2023-06-22T10:23:30;9.55;;;5.18;;
18290;SDS011;9271;48.590;8.866;2023-06-22T10:25:57;6.22;;;4.80;;
18290;SDS011;9271;48.590;8.866;2023-06-22T10:28:23;11.07;;;5.28;;
18290;SDS011;9271;48.590;8.866;2023-06-22T10:30:50;13.32;;;5.07;;
18290;SDS011;9271;48.590;8.866;2023-06-22T10:33:17;12.20;;;5.00;;
18290;SDS011;9271;48.590;8.866;2023-06-22T10:35:43;8.60;;;5.25;;
18290;SDS011;9271;48.590;8.866;2023-06-22T10:38:11;12.40;;;5.22;;
18290;SDS011;9271;48.590;8.866;2023-06-22T10:40:38;12.13;;;6.25;;
18290;SDS011;9271;48.590;8.866;2023-06-22T10:43:05;10.20;;;5.47;;
18290;SDS011;9271;48.590;8.866;2023-06-22T10:45:32;10.82;;;5.30;;
18290;SDS011;9271;48.590;8.866;2023-06-22T10:47:58;9.02;;;5.32;;
18290;SDS011;9271;48.590;8.866;2023-06-22T10:50:25;11.70;;;5.28;;
18290;SDS011;9271;48.590;8.866;2023-06-22T10:52:52;9.30;;;5.10;;
18290;SDS011;9271;48.590;8.866;2023-06-22T10:55:21;10.30;;;5.72;;
18290;SDS011;9271;48.590;8.866;2023-06-22T10:57:47;8.77;;;5.00;;
18290;SDS011;9271;48.590;8.866;2023-06-22T11:00:15;10.25;;;5.25;;
18290;SDS011;9271;48.590;8.866;2023-06-22T11:02:42;10.32;;;4.80;;
18290;SDS011;9271;48.590;8.866;2023-06-22T11:05:09;12.60;;;5.93;;
18290;SDS011;9271;48.590;8.866;2023-06-22T11:07:36;25.98;;;6.13;;
18290;SDS011;9271;48.590;8.866;2023-06-22T11:10:04;9.00;;;5.53;;
18290;SDS011;9271;48.590;8.866;2023-06-22T11:12:32;11.23;;;5.47;;
18290;SDS011;9271;48.590;8.866;2023-06-22T11:14:59;9.23;;;5.50;;
18290;SDS011;9271;48.590;8.866;2023-06-22T11:17:25;8.48;;;5.15;;
18290;SDS011;9271;48.590;8.866;2023-06-22T11:19:52;9.18;;;5.15;;
18290;SDS011;9271;48.590;8.866;2023-06-22T11:22:19;12.93;;;5.65;;
18290;SDS011;9271;48.590;8.866;2023-06-22T11:24:45;9.43;;;5.28;;
18290;SDS011;9271;48.590;8.866;2023-06-22T11:27:12;9.38;;;5.00;;
18290;SDS011;9271;48.590;8.866;2023-06-22T11:29:40;10.70;;;4.70;;
18290;SDS011;9271;48.590;8.866;2023-06-22T11:32:06;9.80;;;4.93;;
18290;SDS011;9271;48.590;8.866;2023-06-22T11:34:33;10.90;;;5.32;;
18290;SDS011;9271;48.590;8.866;2023-06-22T11:37:00;12.68;;;5.88;;
18290;SDS011;9271;48.590;8.866;2023-06-22T11:39:27;21.20;;;6.13;;
18290;SDS011;9271;48.590;8.866;2023-06-22T11:41:53;19.13;;;6.07;;
18290;SDS011;9271;48.590;8.866;2023-06-22T11:44:20;16.08;;;6.10;;
18290;SDS011;9271;48.590;8.866;2023-06-22T11:46:48;25.00;;;6.43;;
18290;SDS011;9271;48.590;8.866;2023-06-22T11:49:15;14.18;;;5.55;;
18290;SDS011;9271;48.590;8.866;2023-06-22T11:51:41;30.25;;;6.40;;
18290;SDS011;9271;48.590;8.866;2023-06-22T11:54:08;34.30;;;7.32;;
18290;SDS011;9271;48.590;8.866;2023-06-22T11:56:34;16.83;;;5.90;;
18290;SDS011;9271;48.590;8.866;2023-06-22T11:59:01;16.80;;;5.97;;
18290;SDS011;9271;48.590;8.866;2023-06-22T12:01:28;16.70;;;5.68;;
18290;SDS011;9271;48.590;8.866;2023-06-22T12:03:56;13.80;;;5.97;;
18290;SDS011;9271;48.590;8.866;2023-06-22T12:06:23;11.73;;;5.55;;
18290;SDS011;9271;48.590;8.866;2023-06-22T12:08:49;12.85;;;5.93;;
18290;SDS011;9271;48.590;8.866;2023-06-22T12:11:16;11.05;;;5.25;;
18290;SDS011;9271;48.590;8.866;2023-06-22T12:13:42;10.70;;;5.43;;
18290;SDS011;9271;48.590;8.866;2023-06-22T12:16:09;10.25;;;5.82;;
18290;SDS011;9271;48.590;8.866;2023-06-22T12:18:37;11.60;;;5.63;;
18290;SDS011;9271;48.590;8.866;2023-06-22T12:21:05;11.88;;;6.38;;
18290;SDS011;9271;48.590;8.866;2023-06-22T12:23:31;11.77;;;5.80;;
18290;SDS011;9271;48.590;8.866;2023-06-22T12:25:58;10.05;;;5.80;;
18290;SDS011;9271;48.590;8.866;2023-06-22T12:28:26;11.65;;;5.78;;
18290;SDS011;9271;48.590;8.866;2023-06-22T12:30:53;10.30;;;5.68;;
18290;SDS011;9271;48.590;8.866;2023-06-22T12:33:19;9.55;;;5.80;;
18290;SDS011;9271;48.590;8.866;2023-06-22T12:35:46;13.98;;;5.95;;
18290;SDS011;9271;48.590;8.866;2023-06-22T12:38:15;9.32;;;5.90;;
18290;SDS011;9271;48.590;8.866;2023-06-22T12:40:42;9.48;;;5.55;;
18290;SDS011;9271;48.590;8.866;2023-06-22T12:43:08;10.45;;;5.63;;
18290;SDS011;9271;48.590;8.866;2023-06-22T12:45:35;10.75;;;5.78;;
18290;SDS011;9271;48.590;8.866;2023-06-22T12:48:02;9.05;;;5.60;;
18290;SDS011;9271;48.590;8.866;2023-06-22T12:50:28;13.00;;;5.28;;
18290;SDS011;9271;48.590;8.866;2023-06-22T12:52:55;12.25;;;5.65;;
18290;SDS011;9271;48.590;8.866;2023-06-22T12:55:23;12.07;;;6.10;;
18290;SDS011;9271;48.590;8.866;2023-06-22T12:57:50;13.45;;;6.00;;
18290;SDS011;9271;48.590;8.866;2023-06-22T13:00:16;9.27;;;5.35;;
18290;SDS011;9271;48.590;8.866;2023-06-22T13:02:43;8.55;;;5.47;;
18290;SDS011;9271;48.590;8.866;2023-06-22T13:05:10;9.07;;;5.97;;
18290;SDS011;9271;48.590;8.866;2023-06-22T13:07:37;9.88;;;5.75;;
18290;SDS011;9271;48.590;8.866;2023-06-22T13:10:04;9.82;;;5.70;;
18290;SDS011;9271;48.590;8.866;2023-06-22T13:12:32;7.07;;;5.32;;
18290;SDS011;9271;48.590;8.866;2023-06-22T13:14:59;10.93;;;5.90;;
18290;SDS011;9271;48.590;8.866;2023-06-22T13:17:27;11.52;;;5.82;;
18290;SDS011;9271;48.590;8.866;2023-06-22T13:19:54;13.85;;;5.97;;
18290;SDS011;9271;48.590;8.866;2023-06-22T13:22:27;12.75;;;5.53;;
18290;SDS011;9271;48.590;8.866;2023-06-22T13:24:55;11.32;;;5.47;;
18290;SDS011;9271;48.590;8.866;2023-06-22T13:27:22;10.90;;;5.85;;
18290;SDS011;9271;48.590;8.866;2023-06-22T13:29:50;14.77;;;6.75;;
18290;SDS011;9271;48.590;8.866;2023-06-22T13:32:17;7.20;;;5.45;;
18290;SDS011;9271;48.590;8.866;2023-06-22T13:34:43;12.73;;;6.38;;
18290;SDS011;9271;48.590;8.866;2023-06-22T13:37:10;14.85;;;6.00;;
18290;SDS011;9271;48.590;8.866;2023-06-22T13:39:37;12.27;;;5.75;;
18290;SDS011;9271;48.590;8.866;2023-06-22T13:42:04;15.57;;;6.28;;
18290;SDS011;9271;48.590;8.866;2023-06-22T13:44:31;9.25;;;6.13;;
18290;SDS011;9271;48.590;8.866;2023-06-22T13:46:59;11.38;;;5.88;;
18290;SDS011;9271;48.590;8.866;2023-06-22T13:49:26;10.27;;;5.57;;
18290;SDS011;9271;48.590;8.866;2023-06-22T13:51:52;12.75;;;6.10;;
18290;SDS011;9271;48.590;8.866;2023-06-22T13:54:19;10.10;;;5.70;;
18290;SDS011;9271;48.590;8.866;2023-06-22T13:56:46;10.68;;;5.55;;
18290;SDS011;9271;48.590;8.866;2023-06-22T13:59:12;10.40;;;5.20;;
18290;SDS011;9271;48.590;8.866;2023-06-22T14:01:39;14.90;;;6.05;;
18290;SDS011;9271;48.590;8.866;2023-06-22T14:04:08;13.02;;;5.05;;
18290;SDS011;9271;48.590;8.866;2023-06-22T14:06:34;14.15;;;5.30;;
18290;SDS011;9271;48.590;8.866;2023-06-22T14:09:01;13.52;;;5.15;;
18290;SDS011;9271;48.590;8.866;2023-06-22T14:11:28;10.88;;;4.78;;
18290;SDS011;9271;48.590;8.866;2023-06-22T14:13:54;16.35;;;4.57;;
18290;SDS011;9271;48.590;8.866;2023-06-22T14:16:21;12.85;;;4.13;;
18290;SDS011;9271;48.590;8.866;2023-06-22T14:18:48;14.80;;;4.95;;
18290;SDS011;9271;48.590;8.866;2023-06-22T14:21:16;13.57;;;5.03;;
18290;SDS011;9271;48.590;8.866;2023-06-22T14:23:43;15.38;;;4.45;;
18290;SDS011;9271;48.590;8.866;2023-06-22T14:26:14;18.17;;;4.20;;
18290;SDS011;9271;48.590;8.866;2023-06-22T14:28:42;10.93;;;4.25;;
18290;SDS011;9271;48.590;8.866;2023-06-22T14:31:12;8.98;;;3.85;;
18290;SDS011;9271;48.590;8.866;2023-06-22T14:33:40;10.30;;;3.75;;
18290;SDS011;9271;48.590;8.866;2023-06-22T14:36:06;13.50;;;3.72;;
18290;SDS011;9271;48.590;8.866;2023-06-22T14:38:34;11.52;;;4.10;;
18290;SDS011;9271;48.590;8.866;2023-06-22T14:41:01;15.15;;;4.57;;
18290;SDS011;9271;48.590;8.866;2023-06-22T14:43:28;14.75;;;3.75;;
18290;SDS011;9271;48.590;8.866;2023-06-22T14:45:54;18.52;;;4.40;;
18290;SDS011;9271;48.590;8.866;2023-06-22T14:48:21;14.05;;;4.25;;
18290;SDS011;9271;48.590;8.866;2023-06-22T14:50:48;15.57;;;4.10;;